createdAt,value
2022-12-11T00:02:12.985Z,22.53
2022-12-11T00:04:41.073Z,17.97
2022-12-11T00:07:09.109Z,18.67
2022-12-11T00:09:37.236Z,18.37
2022-12-11T00:12:07.719Z,18.80
2022-12-11T00:14:36.063Z,17.80
2022-12-11T00:17:04.221Z,18.60
2022-12-11T00:19:32.283Z,18.43
2022-12-11T00:22:00.355Z,17.00
2022-12-11T00:24:28.243Z,19.20
2022-12-11T00:26:56.295Z,17.13
2022-12-11T00:29:25.561Z,17.30
2022-12-11T00:31:53.724Z,17.17
2022-12-11T00:34:21.797Z,17.73
2022-12-11T00:36:50.123Z,17.90
2022-12-11T00:39:18.232Z,18.17
2022-12-11T00:41:46.389Z,17.60
2022-12-11T00:44:14.326Z,16.90
2022-12-11T00:46:43.775Z,16.87
2022-12-11T00:49:11.852Z,17.73
2022-12-11T00:51:39.988Z,16.90
2022-12-11T00:54:08.032Z,17.10
2022-12-11T00:56:36.042Z,17.75
2022-12-11T00:59:04.286Z,14.90
2022-12-11T01:01:32.396Z,15.53
2022-12-11T01:04:01.891Z,16.53
2022-12-11T01:06:30.278Z,14.52
2022-12-11T01:09:12.569Z,14.07
2022-12-11T01:11:41.385Z,16.23
2022-12-11T01:14:09.950Z,14.90
2022-12-11T01:16:38.258Z,15.13
2022-12-11T01:19:07.721Z,15.57
2022-12-11T01:21:35.760Z,14.93
2022-12-11T01:24:03.825Z,15.73
2022-12-11T01:26:31.778Z,13.93
2022-12-11T01:29:00.085Z,15.67
2022-12-11T01:31:28.342Z,14.43
2022-12-11T01:33:56.624Z,14.03
2022-12-11T01:36:25.922Z,16.60
2022-12-11T01:38:54.588Z,16.63
2022-12-11T01:41:23.491Z,16.97
2022-12-11T01:43:59.305Z,15.27
2022-12-11T01:46:28.518Z,16.00
2022-12-11T01:48:57.525Z,16.43
2022-12-11T01:51:27.950Z,16.40
2022-12-11T01:54:00.286Z,14.70
2022-12-11T01:56:29.358Z,15.13
2022-12-11T01:59:00.876Z,14.60
2022-12-11T02:01:34.426Z,15.77
2022-12-11T02:04:03.152Z,14.47
2022-12-11T10:38:23.739Z,11.10
2022-12-11T10:40:54.094Z,8.23
2022-12-11T10:43:22.025Z,8.67
2022-12-11T10:45:54.775Z,8.80
2022-12-11T10:48:23.586Z,8.70
2022-12-11T10:51:01.879Z,7.90
2022-12-11T10:53:32.504Z,8.30
2022-12-11T10:56:01.533Z,7.53
2022-12-11T10:58:34.299Z,7.80
2022-12-11T11:01:11.350Z,7.67
2022-12-11T11:03:53.888Z,7.30
2022-12-11T11:06:24.841Z,7.97
2022-12-11T11:08:55.874Z,7.87
2022-12-11T11:11:28.172Z,9.50
2022-12-11T11:14:14.298Z,6.83
2022-12-11T11:16:44.737Z,7.37
2022-12-11T11:19:23.829Z,7.97
2022-12-11T11:21:54.901Z,8.87
2022-12-11T11:24:35.041Z,7.97
2022-12-11T11:27:18.795Z,8.70
2022-12-11T11:29:52.796Z,7.47
2022-12-11T11:32:23.995Z,8.63
2022-12-11T11:34:52.049Z,8.70
2022-12-11T11:37:26.891Z,7.63
2022-12-11T11:40:03.137Z,8.90
2022-12-11T11:42:38.821Z,7.63
2022-12-11T11:45:14.058Z,7.80
2022-12-11T11:47:50.915Z,8.25
2022-12-11T11:50:23.176Z,8.37
2022-12-11T11:52:57.364Z,7.72
2022-12-11T11:55:38.550Z,7.50
2022-12-11T11:58:13.732Z,8.00
2022-12-11T12:00:41.927Z,7.50
2022-12-11T12:03:13.509Z,8.83
2022-12-11T12:05:46.639Z,8.67
2022-12-11T12:08:23.053Z,8.13
2022-12-11T12:11:00.131Z,7.80
2022-12-11T12:13:51.248Z,8.43
2022-12-11T12:16:52.237Z,7.87
2022-12-11T12:19:27.882Z,7.47
2022-12-11T12:21:56.077Z,5.90
2022-12-11T12:24:38.700Z,7.60
2022-12-11T12:27:49.887Z,6.38
2022-12-11T12:30:15.068Z,4.95
2022-12-11T12:33:00.124Z,6.70
2022-12-11T12:35:36.587Z,7.53
2022-12-11T12:38:12.753Z,7.70
2022-12-11T12:40:55.817Z,7.00
2022-12-11T12:43:53.279Z,6.50
2022-12-11T12:46:34.173Z,5.90
2022-12-11T12:49:03.676Z,5.80
2022-12-11T12:51:31.993Z,5.33
2022-12-11T12:54:05.577Z,4.87
2022-12-11T12:56:40.606Z,6.33
2022-12-11T12:59:20.576Z,6.30
2022-12-11T13:01:52.189Z,6.00
2022-12-11T13:04:55.725Z,6.80
2022-12-11T13:07:29.850Z,5.73
2022-12-11T13:10:01.579Z,7.97
2022-12-11T13:12:40.641Z,5.67
2022-12-11T13:15:28.953Z,6.73
2022-12-11T13:17:57.306Z,7.20
2022-12-11T13:20:27.385Z,6.43
2022-12-11T13:23:09.007Z,6.10
2022-12-11T13:25:49.460Z,6.47
2022-12-11T13:28:25.165Z,6.60
2022-12-11T13:31:24.396Z,5.10
2022-12-11T13:33:55.713Z,5.13
2022-12-11T13:36:29.689Z,6.83
2022-12-11T13:39:01.073Z,4.97
2022-12-11T13:41:30.032Z,5.87
2022-12-11T13:43:59.787Z,6.90
2022-12-11T13:46:32.615Z,6.33
2022-12-11T13:49:03.983Z,6.63
2022-12-11T13:51:35.030Z,7.53
2022-12-11T13:54:09.777Z,4.77
2022-12-11T13:56:39.631Z,6.10
2022-12-11T13:59:19.611Z,5.93
2022-12-11T14:01:48.853Z,5.20
2022-12-11T14:04:20.908Z,5.97
2022-12-11T14:06:49.060Z,6.53
2022-12-11T14:09:20.118Z,5.97
2022-12-11T14:11:53.532Z,6.17
2022-12-11T14:14:29.829Z,6.47
2022-12-11T14:16:59.150Z,5.37
2022-12-11T14:19:27.264Z,5.70
2022-12-11T14:22:00.003Z,6.77
2022-12-11T14:24:28.303Z,6.60
2022-12-11T14:26:56.481Z,6.57
2022-12-11T14:29:32.740Z,5.57
2022-12-11T14:32:05.199Z,5.33
2022-12-11T14:34:38.189Z,6.07
2022-12-11T14:37:08.157Z,5.10
2022-12-11T14:39:42.017Z,6.30
2022-12-11T14:42:16.048Z,5.90
2022-12-11T14:44:50.276Z,6.97
2022-12-11T14:47:22.543Z,6.87
2022-12-11T14:49:55.400Z,7.20
2022-12-11T14:52:26.915Z,6.00
2022-12-11T14:54:59.220Z,7.83
2022-12-11T14:57:30.987Z,8.07
2022-12-11T14:59:59.575Z,7.57
2022-12-11T15:02:32.745Z,6.90
2022-12-11T15:05:13.531Z,6.23
2022-12-11T15:07:42.753Z,6.20
2022-12-11T15:10:28.476Z,7.10
2022-12-11T15:12:56.545Z,7.83
2022-12-11T15:15:24.981Z,7.90
2022-12-11T15:17:55.006Z,7.80
2022-12-11T15:20:27.055Z,6.97
2022-12-11T15:22:58.585Z,8.27
2022-12-11T15:25:29.187Z,7.33
2022-12-11T15:27:59.753Z,8.80
2022-12-11T15:30:31.218Z,8.38
2022-12-11T15:33:20.400Z,7.70
2022-12-11T15:35:57.847Z,8.43
2022-12-11T15:38:31.311Z,8.10
2022-12-11T15:40:59.748Z,8.00
2022-12-11T15:43:29.081Z,7.70
2022-12-11T15:45:57.261Z,8.00
2022-12-11T15:48:26.686Z,8.30
2022-12-11T15:50:54.717Z,8.10
2022-12-11T15:53:22.567Z,9.10
2022-12-11T15:55:50.857Z,8.33
2022-12-11T15:58:20.855Z,8.80
2022-12-11T16:00:48.970Z,9.10
2022-12-11T16:03:19.289Z,9.10
2022-12-11T16:05:49.745Z,8.47
2022-12-11T16:08:20.261Z,9.50
2022-12-11T16:10:49.326Z,8.67
2022-12-11T16:13:17.262Z,9.77
2022-12-11T16:15:46.798Z,8.60
2022-12-11T16:18:19.239Z,9.80
2022-12-11T16:20:49.234Z,9.30
2022-12-11T16:23:17.663Z,8.80
2022-12-11T16:25:47.248Z,9.47
2022-12-11T16:28:17.182Z,9.10
2022-12-11T16:30:45.796Z,8.93
2022-12-11T16:33:14.392Z,9.53
2022-12-11T16:35:42.907Z,10.30
2022-12-11T16:38:13.636Z,11.10
2022-12-11T16:40:41.718Z,11.48
2022-12-11T16:43:09.698Z,8.60
2022-12-11T16:45:37.921Z,9.80
2022-12-11T16:48:06.949Z,9.00
2022-12-11T16:50:36.490Z,9.20
2022-12-11T16:53:04.785Z,8.50
2022-12-11T16:55:34.153Z,8.43
2022-12-11T16:58:02.408Z,8.80
2022-12-11T17:00:31.022Z,8.53
2022-12-11T17:02:59.387Z,10.60
2022-12-11T17:05:27.602Z,8.27
2022-12-11T17:07:56.442Z,8.43
2022-12-11T17:10:24.798Z,9.70
2022-12-11T17:12:54.266Z,10.00
2022-12-11T17:15:22.523Z,10.47
2022-12-11T17:17:50.643Z,8.70
2022-12-11T17:20:20.423Z,9.30
2022-12-11T17:22:48.470Z,9.40
2022-12-11T17:25:22.345Z,9.93
2022-12-11T17:27:50.411Z,9.60
2022-12-11T17:30:19.935Z,11.07
2022-12-11T17:32:49.104Z,10.17
2022-12-11T17:35:17.538Z,12.13
2022-12-11T17:37:45.704Z,11.10
2022-12-11T17:40:13.873Z,9.67
2022-12-11T17:42:43.925Z,11.27
2022-12-11T17:45:13.277Z,9.40
2022-12-11T17:47:42.957Z,10.67
2022-12-11T17:50:11.551Z,9.97
2022-12-11T17:52:44.189Z,10.87
2022-12-11T17:55:12.770Z,7.90
2022-12-11T17:57:41.133Z,9.27
2022-12-11T18:00:10.798Z,9.55
2022-12-11T18:02:38.868Z,9.15
2022-12-11T18:05:08.783Z,9.53
2022-12-11T18:07:38.366Z,7.75
2022-12-11T18:10:07.189Z,8.93
2022-12-11T18:12:35.654Z,10.07
2022-12-11T18:15:04.838Z,9.57
2022-12-11T18:17:33.226Z,9.37
2022-12-11T18:20:01.294Z,10.50
2022-12-11T18:22:30.726Z,10.80
2022-12-11T18:24:59.609Z,10.70
2022-12-11T18:27:29.150Z,9.38
2022-12-11T18:29:57.447Z,9.45
2022-12-11T18:32:25.630Z,8.70
2022-12-11T18:34:53.707Z,9.63
2022-12-11T18:37:27.555Z,10.77
2022-12-11T18:39:57.356Z,8.50
2022-12-11T18:42:33.643Z,10.33
2022-12-11T18:45:02.279Z,8.40
2022-12-11T18:47:31.012Z,7.65
2022-12-11T18:50:03.946Z,8.90
2022-12-11T18:52:36.017Z,7.85
2022-12-11T18:55:06.237Z,9.63
2022-12-11T18:57:34.351Z,7.97
2022-12-11T19:00:07.055Z,10.03
2022-12-11T19:02:35.563Z,7.40
2022-12-11T19:05:03.482Z,8.87
2022-12-11T19:07:31.582Z,8.10
2022-12-11T19:09:59.530Z,8.40
2022-12-11T19:12:29.079Z,9.47
2022-12-11T19:14:57.034Z,8.93
2022-12-11T19:17:25.132Z,10.47
2022-12-11T19:19:53.162Z,9.20
2022-12-11T19:22:21.589Z,11.87
2022-12-11T19:24:49.775Z,10.63
2022-12-11T19:27:18.002Z,11.87
2022-12-11T19:29:47.328Z,10.13
2022-12-11T19:32:15.453Z,10.17
2022-12-11T19:34:43.361Z,11.33
2022-12-11T19:37:11.541Z,10.02
2022-12-11T19:39:41.123Z,10.97
2022-12-11T19:42:09.104Z,10.63
2022-12-11T19:44:37.180Z,10.00
2022-12-11T19:47:07.358Z,10.17
2022-12-11T19:49:35.334Z,9.47
2022-12-11T19:52:04.718Z,11.10
2022-12-11T19:54:32.679Z,10.43
2022-12-11T19:57:00.727Z,11.20
2022-12-11T19:59:28.642Z,10.63
2022-12-11T20:01:56.862Z,9.85
2022-12-11T20:04:26.254Z,10.93
2022-12-11T20:06:54.315Z,10.83
2022-12-11T20:09:22.595Z,11.00
2022-12-11T20:11:50.901Z,10.55
2022-12-11T20:14:21.902Z,11.77
2022-12-11T20:19:39.740Z,11.43
2022-12-11T20:22:07.789Z,11.10
2022-12-11T20:24:35.919Z,9.40
2022-12-11T20:27:04.337Z,10.97
2022-12-11T20:29:33.112Z,9.43
2022-12-11T20:32:01.321Z,8.83
2022-12-11T20:34:29.512Z,9.00
2022-12-11T20:37:00.319Z,9.33
2022-12-11T20:39:29.202Z,8.50
2022-12-11T20:41:57.129Z,10.02
2022-12-11T20:44:25.458Z,9.57
2022-12-11T20:46:53.640Z,9.70
2022-12-11T20:49:21.575Z,9.95
2022-12-11T20:51:49.676Z,9.90
2022-12-11T20:54:18.979Z,9.87
2022-12-11T20:56:47.818Z,10.13
2022-12-11T20:59:15.984Z,11.57
2022-12-11T21:01:44.492Z,10.27
2022-12-11T21:04:12.954Z,12.37
2022-12-11T21:06:42.166Z,11.63
2022-12-11T21:09:14.799Z,10.60
2022-12-11T21:11:44.500Z,11.40
2022-12-11T21:14:12.474Z,8.87
2022-12-11T21:16:40.899Z,9.17
2022-12-11T21:19:13.675Z,9.73
2022-12-11T21:21:45.651Z,9.73
2022-12-11T21:24:17.226Z,11.20
2022-12-11T21:26:47.223Z,9.80
2022-12-11T21:29:15.758Z,9.45
2022-12-11T21:31:44.592Z,9.02
2022-12-11T21:34:13.212Z,9.00
2022-12-11T21:36:41.291Z,10.87
2022-12-11T21:39:10.011Z,9.30
2022-12-11T21:41:38.366Z,9.40
2022-12-11T21:45:31.062Z,9.40
2022-12-11T21:46:55.974Z,11.50
2022-12-11T21:49:24.161Z,9.57
2022-12-11T21:51:52.361Z,10.17
2022-12-11T21:54:21.383Z,9.33
2022-12-11T21:56:49.716Z,9.70
2022-12-11T21:59:18.964Z,10.10
2022-12-11T22:01:47.279Z,10.57
2022-12-11T22:04:16.753Z,9.73
2022-12-11T22:06:47.336Z,9.40
2022-12-11T22:09:17.898Z,8.23
2022-12-11T22:11:47.994Z,8.47
2022-12-11T22:14:18.781Z,10.47
2022-12-11T22:16:47.350Z,9.90
2022-12-11T22:19:15.710Z,9.70
2022-12-11T22:21:43.886Z,10.00
2022-12-11T22:24:11.961Z,10.77
2022-12-11T22:26:40.915Z,10.10
2022-12-11T22:29:08.995Z,10.60
2022-12-11T22:31:38.404Z,9.60
2022-12-11T22:34:06.335Z,10.70
2022-12-11T22:36:34.500Z,9.60
2022-12-11T22:39:03.060Z,9.67
2022-12-11T22:41:32.869Z,9.10
2022-12-11T22:44:01.405Z,10.50
2022-12-11T22:46:31.863Z,10.57
2022-12-11T22:49:01.305Z,9.40
2022-12-11T22:51:29.233Z,10.07
2022-12-11T22:53:58.615Z,9.48
2022-12-11T22:56:27.064Z,9.52
2022-12-11T22:58:55.313Z,10.17
2022-12-11T23:01:25.422Z,9.57
2022-12-11T23:03:54.161Z,8.13
2022-12-11T23:06:25.807Z,9.75
2022-12-11T23:08:55.149Z,9.30
2022-12-11T23:11:25.852Z,9.38
2022-12-11T23:13:54.462Z,8.67
2022-12-11T23:16:24.596Z,9.00
2022-12-11T23:18:53.082Z,9.33
2022-12-11T23:21:21.819Z,9.13
2022-12-11T23:23:51.296Z,9.55
2022-12-11T23:26:20.189Z,9.15
2022-12-11T23:28:48.560Z,9.93
2022-12-11T23:31:17.571Z,8.83
2022-12-11T23:33:45.825Z,9.33
2022-12-11T23:36:14.511Z,8.80
2022-12-11T23:38:42.819Z,8.53
2022-12-11T23:41:15.086Z,8.07
2022-12-11T23:43:43.694Z,10.57
2022-12-11T23:46:15.016Z,9.47
2022-12-11T23:48:43.751Z,8.30
2022-12-11T23:51:15.165Z,9.80
2022-12-11T23:53:43.940Z,8.10
2022-12-11T23:56:15.921Z,8.47
2022-12-11T23:58:44.124Z,9.50
